首页
METAR-TAF:

METAR-TAF

机场 :

拉廊, 泰国

纬度: 09-59N, 经度: 098-37E, 海拔: 7米

当前天气观测

该预报发布于52分钟前的02:00 UTC
风速3节,风向,在东转东北东南之间变化
温度 25°C
湿度 89%
气压 1009 hPa
能見度: 9000
多云层高于2000英尺
小雨,

METAR: VTSR 220200Z 10003KT 060V140 9000 -RA BKN020 25/23 Q1009 RERA NOSIG

时间: 09:52 (02:52 UTC)

预报

该预报发布于3小时和52分钟前的23:00 UTC
预报有效从22日的 00点(UTC)到 22日的 24点(UTC)
风速6节,风向西南
能见度10公里或以上
散云层高于2000英尺
短暂存在
从 22日的 00点(UTC)到 22日的 08点(UTC)
少量云层高于1800英尺, 积雨云.
散云层高于2000英尺
多云层高于10000英尺
雷暴, 小雨,

TAF: VTSR 212300Z 2200/2224 22006KT 9999 SCT020 TEMPO 2200/2208 -TSRA FEW018CB SCT020 BKN100

超过4000个机场的气象观测和天气预报(METAR&TAF报告)。

可查询的气象台以黄色和红色小点在地图上表示。

将鼠标移到小点上方,可查看气象台名称。

然后点击查看天气观测和预报。

如需切换地图:点击带黑十字的绿色按钮放大地图;点击带横线的绿色按钮缩小地图;或者点击绿色箭头查看邻近地区的地图。


METAR-TAF: